Time;durP1;ratioP1;P1;durP2;ratioP2;P2;SDS_P1;SDS_P2;PMS_P1;PMS_P2;Temp;Humidity;BMP_temperature;BMP_pressure;BME280_temperature;BME280_humidity;BME280_pressure;Samples;Min_cycle;Max_cycle;Signal;HPM_P1;HPM_P2
2022/08/05 00:01:12;;;;;;;59.90;4.70;;;;;;;;;;5092402;28;20513;-65
2022/08/05 00:03:43;;;;;;;59.90;4.30;;;;;;;;;;5092483;28;20805;-65
2022/08/05 00:06:10;;;;;;;60.17;4.10;;;;;;;;;;5092351;28;20529;-65
2022/08/05 00:08:40;;;;;;;60.37;4.50;;;;;;;;;;5091786;28;21025;-65
2022/08/05 00:11:10;;;;;;;61.10;4.10;;;;;;;;;;5091954;28;20554;-65
2022/08/05 00:13:39;;;;;;;60.70;4.90;;;;;;;;;;5092394;28;20442;-65
2022/08/05 00:16:07;;;;;;;60.53;4.70;;;;;;;;;;5092283;28;20458;-65
2022/08/05 00:18:36;;;;;;;61.10;4.30;;;;;;;;;;5091690;28;20457;-65
2022/08/05 00:21:06;;;;;;;60.17;4.40;;;;;;;;;;5092024;28;20827;-66
2022/08/05 00:23:34;;;;;;;59.77;3.93;;;;;;;;;;5091878;28;20455;-65
2022/08/05 00:26:02;;;;;;;60.77;5.13;;;;;;;;;;5092221;28;20812;-65
2022/08/05 00:28:32;;;;;;;59.30;4.10;;;;;;;;;;5091955;28;20931;-65
2022/08/05 00:30:59;;;;;;;60.27;4.80;;;;;;;;;;5091971;28;20472;-65
2022/08/05 00:33:27;;;;;;;59.97;4.40;;;;;;;;;;5091946;28;20795;-65
2022/08/05 00:35:57;;;;;;;59.80;4.10;;;;;;;;;;5091766;28;20457;-65
2022/08/05 00:38:24;;;;;;;59.50;4.00;;;;;;;;;;5091544;28;20450;-65
2022/08/05 00:40:53;;;;;;;60.50;4.60;;;;;;;;;;5091711;28;20828;-66
2022/08/05 00:43:20;;;;;;;61.97;4.70;;;;;;;;;;5090587;28;20451;-66
2022/08/05 00:45:50;;;;;;;59.07;3.77;;;;;;;;;;5092045;28;20456;-65
2022/08/05 00:48:18;;;;;;;59.67;4.20;;;;;;;;;;5090499;28;20874;-65
2022/08/05 00:50:47;;;;;;;63.10;5.40;;;;;;;;;;5091277;28;20482;-66
2022/08/05 00:53:15;;;;;;;60.30;4.40;;;;;;;;;;5090485;28;20534;-65
2022/08/05 00:55:42;;;;;;;59.77;4.50;;;;;;;;;;5091979;28;20442;-65
2022/08/05 00:58:10;;;;;;;60.30;4.30;;;;;;;;;;5091734;28;20447;-66
2022/08/05 01:00:39;;;;;;;59.57;3.93;;;;;;;;;;5090036;28;20527;-65
2022/08/05 01:03:08;;;;;;;59.07;3.80;;;;;;;;;;5092025;28;20484;-65
2022/08/05 01:05:36;;;;;;;59.27;4.10;;;;;;;;;;5093543;28;20454;-65
2022/08/05 01:08:03;;;;;;;59.73;4.27;;;;;;;;;;5095608;28;20450;-65
2022/08/05 01:10:36;;;;;;;59.47;4.20;;;;;;;;;;5095356;28;20496;-66
2022/08/05 01:13:07;;;;;;;61.30;4.37;;;;;;;;;;5095617;28;20796;-65
2022/08/05 01:15:38;;;;;;;59.87;4.77;;;;;;;;;;5095270;28;20454;-66
2022/08/05 01:18:07;;;;;;;59.27;3.90;;;;;;;;;;5095654;28;20827;-65
2022/08/05 01:20:40;;;;;;;59.80;4.00;;;;;;;;;;5095229;28;20916;-65
2022/08/05 01:23:12;;;;;;;60.57;4.30;;;;;;;;;;5095395;28;20850;-65
2022/08/05 01:25:47;;;;;;;59.80;4.07;;;;;;;;;;5095294;28;20970;-65
2022/08/05 01:28:18;;;;;;;60.33;4.63;;;;;;;;;;5095069;28;20452;-65
2022/08/05 01:30:48;;;;;;;59.90;4.10;;;;;;;;;;5095086;28;20485;-65
2022/08/05 01:33:16;;;;;;;59.40;3.67;;;;;;;;;;5094024;28;20536;-65
2022/08/05 01:35:46;;;;;;;58.83;3.73;;;;;;;;;;5095106;28;20452;-65
2022/08/05 01:38:14;;;;;;;61.10;4.40;;;;;;;;;;5093366;28;20442;-65
2022/08/05 01:40:43;;;;;;;59.90;4.07;;;;;;;;;;5094727;28;20470;-65
2022/08/05 01:43:10;;;;;;;60.10;5.10;;;;;;;;;;5094394;28;20569;-65
2022/08/05 01:45:42;;;;;;;60.70;4.40;;;;;;;;;;5094929;28;20461;-65
2022/08/05 01:48:10;;;;;;;61.90;4.90;;;;;;;;;;5093641;28;20489;-65
2022/08/05 01:50:39;;;;;;;61.50;5.20;;;;;;;;;;5094554;28;20484;-66
2022/08/05 01:53:07;;;;;;;60.20;4.40;;;;;;;;;;5095533;28;20806;-68
2022/08/05 01:55:38;;;;;;;60.10;4.53;;;;;;;;;;5094718;28;20450;-65
2022/08/05 01:58:06;;;;;;;59.90;4.70;;;;;;;;;;5095079;28;20545;-65
2022/08/05 02:00:36;;;;;;;59.57;3.60;;;;;;;;;;5094486;28;20474;-65
2022/08/05 02:03:10;;;;;;;59.57;3.70;;;;;;;;;;5094965;28;20481;-65
2022/08/05 02:05:42;;;;;;;59.67;3.77;;;;;;;;;;5094718;28;20452;-66
2022/08/05 02:08:09;;;;;;;60.10;4.57;;;;;;;;;;5094342;28;20452;-65
2022/08/05 02:10:40;;;;;;;59.17;4.00;;;;;;;;;;5094280;28;20476;-65
2022/08/05 02:13:13;;;;;;;59.10;3.93;;;;;;;;;;5094644;28;20455;-65
2022/08/05 02:15:42;;;;;;;60.60;4.57;;;;;;;;;;5094603;28;20453;-65
2022/08/05 02:18:12;;;;;;;59.37;4.40;;;;;;;;;;5093111;28;20867;-66
2022/08/05 02:20:44;;;;;;;61.50;4.73;;;;;;;;;;5093764;28;20483;-65
2022/08/05 02:23:13;;;;;;;60.23;4.50;;;;;;;;;;5094503;28;20478;-65
2022/08/05 02:25:44;;;;;;;60.00;3.97;;;;;;;;;;5094218;28;20486;-65
2022/08/05 02:28:12;;;;;;;62.50;5.33;;;;;;;;;;5093942;28;20503;-65
2022/08/05 02:30:43;;;;;;;59.97;4.37;;;;;;;;;;5093753;28;20471;-66
2022/08/05 02:33:15;;;;;;;60.90;4.50;;;;;;;;;;5093889;28;20450;-65
2022/08/05 02:35:44;;;;;;;60.17;4.33;;;;;;;;;;5094300;28;20455;-65
2022/08/05 02:38:13;;;;;;;59.87;4.40;;;;;;;;;;5093802;28;20959;-65
2022/08/05 02:40:42;;;;;;;62.90;5.00;;;;;;;;;;5093238;28;20509;-65
2022/08/05 02:43:10;;;;;;;59.10;3.53;;;;;;;;;;5093742;28;20481;-65
2022/08/05 02:45:38;;;;;;;59.90;4.30;;;;;;;;;;5093584;28;20930;-65
2022/08/05 02:48:05;;;;;;;61.63;4.83;;;;;;;;;;5093358;28;20453;-65
2022/08/05 02:50:35;;;;;;;61.03;4.73;;;;;;;;;;5093173;28;20561;-65
2022/08/05 02:53:02;;;;;;;61.07;3.97;;;;;;;;;;5093850;28;20627;-65
2022/08/05 02:55:33;;;;;;;60.27;4.53;;;;;;;;;;5093782;28;20453;-65
2022/08/05 02:58:02;;;;;;;59.77;4.23;;;;;;;;;;5094136;28;20453;-65
2022/08/05 03:00:29;;;;;;;59.70;3.60;;;;;;;;;;5092963;28;20473;-66
2022/08/05 03:02:58;;;;;;;58.77;3.60;;;;;;;;;;5092385;28;20861;-66
2022/08/05 03:05:30;;;;;;;59.57;4.30;;;;;;;;;;5093452;28;20812;-65
2022/08/05 03:07:59;;;;;;;60.47;5.80;;;;;;;;;;5093242;28;20449;-65
2022/08/05 03:10:29;;;;;;;61.20;5.37;;;;;;;;;;5092882;28;20551;-65
2022/08/05 03:12:57;;;;;;;60.90;5.33;;;;;;;;;;5093202;28;20445;-65
2022/08/05 03:15:27;;;;;;;59.37;3.70;;;;;;;;;;5093356;28;20490;-65
2022/08/05 03:17:54;;;;;;;60.30;5.00;;;;;;;;;;5093043;28;20855;-65
2022/08/05 03:20:21;;;;;;;60.00;4.87;;;;;;;;;;5092800;28;20465;-65
2022/08/05 03:22:51;;;;;;;61.07;4.80;;;;;;;;;;5092985;28;20485;-65
2022/08/05 03:25:21;;;;;;;61.47;5.17;;;;;;;;;;5092835;28;20534;-66
2022/08/05 03:27:49;;;;;;;60.47;4.10;;;;;;;;;;5092810;28;20520;-65
2022/08/05 03:30:16;;;;;;;61.70;3.83;;;;;;;;;;5092687;28;20507;-65
2022/08/05 03:32:45;;;;;;;59.37;3.60;;;;;;;;;;5093015;28;20444;-65
2022/08/05 03:35:14;;;;;;;60.67;4.27;;;;;;;;;;5092833;28;21023;-66
2022/08/05 03:37:42;;;;;;;60.00;3.90;;;;;;;;;;5092705;28;20458;-65
2022/08/05 03:40:10;;;;;;;59.83;4.10;;;;;;;;;;5092566;28;20450;-65
2022/08/05 03:42:39;;;;;;;59.67;4.27;;;;;;;;;;5092684;28;20497;-65
2022/08/05 03:45:13;;;;;;;59.30;4.00;;;;;;;;;;5092552;28;20454;-65
2022/08/05 03:47:41;;;;;;;59.60;4.20;;;;;;;;;;5092610;28;20813;-65
2022/08/05 03:50:08;;;;;;;60.17;4.57;;;;;;;;;;5092131;28;20472;-68
2022/08/05 03:52:40;;;;;;;60.77;5.40;;;;;;;;;;5092696;28;20448;-65
2022/08/05 03:55:09;;;;;;;61.33;5.47;;;;;;;;;;5091265;28;20452;-65
2022/08/05 03:57:42;;;;;;;61.73;5.73;;;;;;;;;;5092360;28;20453;-65
2022/08/05 04:00:13;;;;;;;58.93;3.90;;;;;;;;;;5092071;28;20510;-65
2022/08/05 04:02:43;;;;;;;60.17;3.97;;;;;;;;;;5091765;28;20817;-66
2022/08/05 04:05:13;;;;;;;59.80;4.93;;;;;;;;;;5092549;28;20513;-65
2022/08/05 04:07:44;;;;;;;60.77;5.40;;;;;;;;;;5092630;28;20452;-68
2022/08/05 04:10:11;;;;;;;62.27;5.63;;;;;;;;;;5092043;28;20830;-68
2022/08/05 04:12:38;;;;;;;60.70;5.13;;;;;;;;;;5092449;28;20516;-68
2022/08/05 04:15:07;;;;;;;60.40;4.33;;;;;;;;;;5092193;28;20468;-68
2022/08/05 04:17:40;;;;;;;60.47;5.20;;;;;;;;;;5092058;28;20462;-68
2022/08/05 04:20:07;;;;;;;59.90;4.50;;;;;;;;;;5091892;28;20826;-68
2022/08/05 04:22:35;;;;;;;62.20;5.03;;;;;;;;;;5092100;28;20993;-65
2022/08/05 04:25:02;;;;;;;62.50;5.30;;;;;;;;;;5092113;28;20952;-65
2022/08/05 04:27:30;;;;;;;59.67;4.53;;;;;;;;;;5091850;28;20467;-68
2022/08/05 04:29:58;;;;;;;61.40;4.10;;;;;;;;;;5091582;28;20452;-68
2022/08/05 04:32:31;;;;;;;59.70;4.00;;;;;;;;;;5092127;28;20440;-68
2022/08/05 04:34:59;;;;;;;60.17;4.57;;;;;;;;;;5092412;28;20492;-68
2022/08/05 04:37:27;;;;;;;62.37;4.90;;;;;;;;;;5091888;28;20481;-68
2022/08/05 04:39:56;;;;;;;61.37;4.50;;;;;;;;;;5091989;28;20454;-68
2022/08/05 04:42:24;;;;;;;68.20;5.20;;;;;;;;;;5095965;28;20485;-68
2022/08/05 04:44:52;;;;;;;59.03;3.87;;;;;;;;;;5096460;28;20445;-65
2022/08/05 04:47:19;;;;;;;59.37;3.80;;;;;;;;;;5096172;28;20873;-67
2022/08/05 04:49:47;;;;;;;60.20;4.50;;;;;;;;;;5095614;28;20466;-68
2022/08/05 04:52:15;;;;;;;60.23;4.00;;;;;;;;;;5096065;28;20835;-68
2022/08/05 04:54:43;;;;;;;61.97;5.47;;;;;;;;;;5095873;28;20452;-68
2022/08/05 04:57:10;;;;;;;60.30;4.90;;;;;;;;;;5096063;28;20537;-68
2022/08/05 04:59:37;;;;;;;60.67;4.80;;;;;;;;;;5095363;28;20459;-68
2022/08/05 05:02:07;;;;;;;60.80;5.17;;;;;;;;;;5095104;28;20555;-67
2022/08/05 05:04:34;;;;;;;60.27;4.33;;;;;;;;;;5095711;28;20448;-68
2022/08/05 05:07:01;;;;;;;63.03;3.80;;;;;;;;;;5095698;28;20521;-68
2022/08/05 05:09:30;;;;;;;61.73;5.03;;;;;;;;;;5095111;28;20528;-65
2022/08/05 05:11:57;;;;;;;59.77;4.50;;;;;;;;;;5095104;28;20484;-65
2022/08/05 05:14:25;;;;;;;61.37;4.90;;;;;;;;;;5095568;28;20442;-65
2022/08/05 05:16:52;;;;;;;59.83;4.50;;;;;;;;;;5095371;28;20558;-68
2022/08/05 05:19:19;;;;;;;60.87;4.93;;;;;;;;;;5095156;28;20449;-67
2022/08/05 05:21:46;;;;;;;60.67;4.07;;;;;;;;;;5095179;28;20974;-68
2022/08/05 05:24:14;;;;;;;59.77;4.10;;;;;;;;;;5095848;28;20572;-68
2022/08/05 05:26:44;;;;;;;58.80;3.67;;;;;;;;;;5093983;28;20452;-66
2022/08/05 05:29:12;;;;;;;60.70;4.87;;;;;;;;;;5095063;28;20483;-65
2022/08/05 05:31:40;;;;;;;60.57;3.83;;;;;;;;;;5094953;28;20488;-67
2022/08/05 05:34:07;;;;;;;59.23;4.10;;;;;;;;;;5095118;28;20445;-67
2022/08/05 05:36:34;;;;;;;60.07;4.63;;;;;;;;;;5094982;28;20445;-67
2022/08/05 05:39:02;;;;;;;62.10;4.20;;;;;;;;;;5093725;28;20441;-68
2022/08/05 05:41:31;;;;;;;60.97;4.50;;;;;;;;;;5094736;28;20996;-68
2022/08/05 05:43:59;;;;;;;59.90;4.37;;;;;;;;;;5095089;28;20478;-65
2022/08/05 05:46:26;;;;;;;60.23;3.77;;;;;;;;;;5094907;28;20450;-66
2022/08/05 05:48:55;;;;;;;59.47;4.10;;;;;;;;;;5093095;28;20942;-64
2022/08/05 05:51:23;;;;;;;59.40;4.60;;;;;;;;;;5093573;28;20992;-65
2022/08/05 05:53:52;;;;;;;60.53;4.73;;;;;;;;;;5094734;28;20442;-64
2022/08/05 05:56:21;;;;;;;59.37;4.30;;;;;;;;;;5092906;28;20946;-66
2022/08/05 05:58:48;;;;;;;61.90;4.23;;;;;;;;;;5093062;28;20863;-66
2022/08/05 06:01:17;;;;;;;58.87;4.13;;;;;;;;;;5093353;28;20470;-66
2022/08/05 06:03:44;;;;;;;59.83;4.30;;;;;;;;;;5093679;28;20478;-66
2022/08/05 06:06:11;;;;;;;60.57;4.20;;;;;;;;;;5094559;28;20446;-66
2022/08/05 06:08:38;;;;;;;59.63;4.07;;;;;;;;;;5093825;28;20442;-66
2022/08/05 06:11:07;;;;;;;60.33;4.27;;;;;;;;;;5094251;28;20548;-66
2022/08/05 06:13:39;;;;;;;60.10;4.43;;;;;;;;;;5094298;28;20946;-66
2022/08/05 06:16:06;;;;;;;60.03;3.70;;;;;;;;;;5093917;28;20474;-66
2022/08/05 06:18:36;;;;;;;59.00;3.90;;;;;;;;;;5092634;28;21025;-66
2022/08/05 06:21:05;;;;;;;58.80;3.97;;;;;;;;;;5092722;28;20466;-66
2022/08/05 06:23:32;;;;;;;58.67;3.57;;;;;;;;;;5093988;28;21011;-66
2022/08/05 06:26:01;;;;;;;60.47;4.50;;;;;;;;;;5094030;28;20541;-66
2022/08/05 06:28:28;;;;;;;59.20;3.47;;;;;;;;;;5091834;28;20480;-66
2022/08/05 06:30:56;;;;;;;58.90;3.40;;;;;;;;;;5093654;28;20471;-66
2022/08/05 06:33:23;;;;;;;59.97;3.03;;;;;;;;;;5094282;28;20442;-66
2022/08/05 06:35:52;;;;;;;58.60;3.47;;;;;;;;;;5094025;28;20470;-66
2022/08/05 06:38:19;;;;;;;60.57;3.27;;;;;;;;;;5093535;28;20542;-66
2022/08/05 06:40:46;;;;;;;60.93;3.90;;;;;;;;;;5093339;28;20489;-67
2022/08/05 06:43:15;;;;;;;59.10;4.00;;;;;;;;;;5093588;28;20846;-66
2022/08/05 06:45:42;;;;;;;58.90;3.63;;;;;;;;;;5093521;28;20541;-66
2022/08/05 06:48:11;;;;;;;58.77;3.30;;;;;;;;;;5093562;28;20545;-66
2022/08/05 06:50:39;;;;;;;59.10;3.30;;;;;;;;;;5092820;28;20487;-66
2022/08/05 06:53:08;;;;;;;58.60;3.10;;;;;;;;;;5093600;28;20525;-66
2022/08/05 06:55:35;;;;;;;58.67;3.50;;;;;;;;;;5092846;28;20482;-66
2022/08/05 06:58:02;;;;;;;59.07;3.40;;;;;;;;;;5093490;28;20811;-66
2022/08/05 07:00:32;;;;;;;59.20;3.20;;;;;;;;;;5092172;28;20470;-66
2022/08/05 07:03:00;;;;;;;58.97;3.47;;;;;;;;;;5092493;28;20537;-66
2022/08/05 07:05:27;;;;;;;58.70;3.30;;;;;;;;;;5093248;28;20453;-67
2022/08/05 07:07:55;;;;;;;58.53;3.27;;;;;;;;;;5093189;28;20451;-66
2022/08/05 07:10:26;;;;;;;59.83;2.80;;;;;;;;;;5092239;28;20541;-66
2022/08/05 07:18:23;;;;;;;59.37;3.30;;;;;;;;;;5092676;28;20433;-66
2022/08/05 07:20:50;;;;;;;58.87;3.60;;;;;;;;;;5092679;28;20459;-66
2022/08/05 07:23:17;;;;;;;59.07;3.07;;;;;;;;;;5092416;28;20852;-66
2022/08/05 07:25:46;;;;;;;61.80;3.70;;;;;;;;;;5092865;28;20447;-67
2022/08/05 07:28:19;;;;;;;61.70;3.90;;;;;;;;;;5092871;28;20528;-66
2022/08/05 07:30:46;;;;;;;59.40;3.83;;;;;;;;;;5091704;28;20466;-66
2022/08/05 07:33:13;;;;;;;59.10;3.27;;;;;;;;;;5091815;28;20435;-66
2022/08/05 07:35:41;;;;;;;60.90;3.40;;;;;;;;;;5092829;28;20445;-67
2022/08/05 07:38:08;;;;;;;58.90;3.20;;;;;;;;;;5092624;28;20446;-66
2022/08/05 07:40:35;;;;;;;57.97;3.20;;;;;;;;;;5092236;28;20462;-67
2022/08/05 07:43:05;;;;;;;59.30;3.10;;;;;;;;;;5092095;28;20817;-66
2022/08/05 07:45:33;;;;;;;58.97;3.50;;;;;;;;;;5092355;28;20447;-67
2022/08/05 07:48:01;;;;;;;58.80;3.53;;;;;;;;;;5092244;28;20454;-66
2022/08/05 07:50:28;;;;;;;59.00;3.10;;;;;;;;;;5091922;28;20482;-66
2022/08/05 07:52:55;;;;;;;59.03;3.07;;;;;;;;;;5092359;28;20523;-66
2022/08/05 07:55:24;;;;;;;58.50;3.40;;;;;;;;;;5092535;28;20461;-67
2022/08/05 07:57:52;;;;;;;58.70;3.00;;;;;;;;;;5091815;28;20554;-66
2022/08/05 08:00:24;;;;;;;58.50;3.00;;;;;;;;;;5091556;28;20471;-67
2022/08/05 08:02:51;;;;;;;60.20;4.10;;;;;;;;;;5090110;28;20451;-66
2022/08/05 08:05:18;;;;;;;58.23;2.70;;;;;;;;;;5092232;28;20484;-66
2022/08/05 08:07:46;;;;;;;60.50;3.40;;;;;;;;;;5092068;28;20954;-66
2022/08/05 08:10:15;;;;;;;58.27;2.90;;;;;;;;;;5091775;28;20465;-67
2022/08/05 08:12:43;;;;;;;58.40;2.80;;;;;;;;;;5090627;28;20950;-66
2022/08/05 08:15:11;;;;;;;58.83;3.17;;;;;;;;;;5092150;28;20438;-66
2022/08/05 08:17:40;;;;;;;58.43;3.43;;;;;;;;;;5092069;28;20446;-66
2022/08/05 08:20:10;;;;;;;58.47;2.70;;;;;;;;;;5091620;28;20880;-66
2022/08/05 08:22:38;;;;;;;58.67;3.03;;;;;;;;;;5091566;28;20450;-66
2022/08/05 08:25:07;;;;;;;58.17;2.67;;;;;;;;;;5091650;28;20581;-66
2022/08/05 08:27:35;;;;;;;58.90;3.37;;;;;;;;;;5091714;28;20935;-66
2022/08/05 08:30:02;;;;;;;58.37;2.80;;;;;;;;;;5091386;28;20443;-66
2022/08/05 08:32:30;;;;;;;58.60;3.17;;;;;;;;;;5091725;28;20550;-66
2022/08/05 08:35:06;;;;;;;59.27;3.23;;;;;;;;;;5090907;28;20545;-66
2022/08/05 08:37:34;;;;;;;58.37;2.63;;;;;;;;;;5091928;28;20446;-67
2022/08/05 08:40:01;;;;;;;58.37;2.77;;;;;;;;;;5091581;28;20446;-66
2022/08/05 08:42:29;;;;;;;58.27;2.97;;;;;;;;;;5091811;28;20450;-66
2022/08/05 08:45:00;;;;;;;58.17;2.80;;;;;;;;;;5091837;28;20481;-67
2022/08/05 08:47:28;;;;;;;58.60;2.83;;;;;;;;;;5092037;28;20461;-66
2022/08/05 08:49:56;;;;;;;58.30;2.70;;;;;;;;;;5091003;28;20463;-66
2022/08/05 08:52:26;;;;;;;58.10;2.50;;;;;;;;;;5091668;28;20443;-66
2022/08/05 08:54:54;;;;;;;58.07;2.60;;;;;;;;;;5091768;28;20934;-66
2022/08/05 08:57:22;;;;;;;58.30;2.70;;;;;;;;;;5091817;28;20820;-66
2022/08/05 08:59:50;;;;;;;57.87;2.30;;;;;;;;;;5091291;28;20460;-66
2022/08/05 09:02:19;;;;;;;58.27;2.83;;;;;;;;;;5091660;28;20549;-66
2022/08/05 09:04:47;;;;;;;58.50;2.80;;;;;;;;;;5091549;28;20565;-67
2022/08/05 09:07:14;;;;;;;58.50;2.80;;;;;;;;;;5091834;28;20445;-66
2022/08/05 09:09:43;;;;;;;58.00;2.50;;;;;;;;;;5091268;28;20938;-66
2022/08/05 09:12:11;;;;;;;57.87;2.40;;;;;;;;;;5091468;28;20974;-67
2022/08/05 09:14:39;;;;;;;58.20;2.93;;;;;;;;;;5091643;28;20452;-66
2022/08/05 09:17:07;;;;;;;59.00;2.70;;;;;;;;;;5091604;28;20447;-66
2022/08/05 09:19:36;;;;;;;58.57;3.20;;;;;;;;;;5091162;28;20545;-67
2022/08/05 09:22:03;;;;;;;58.00;2.60;;;;;;;;;;5091584;28;20982;-67
2022/08/05 09:24:31;;;;;;;58.50;3.03;;;;;;;;;;5091533;28;20482;-66
2022/08/05 09:27:00;;;;;;;61.50;3.20;;;;;;;;;;5093566;28;20442;-66
2022/08/05 09:29:44;;;;;;;59.63;5.37;;;;;;;;;;5094898;28;20449;-67
2022/08/05 09:32:17;;;;;;;59.03;3.07;;;;;;;;;;5095323;28;20466;-67
2022/08/05 09:34:49;;;;;;;58.70;2.70;;;;;;;;;;5095590;28;20442;-67
2022/08/05 09:37:20;;;;;;;58.17;2.77;;;;;;;;;;5095249;28;20537;-66
2022/08/05 09:39:50;;;;;;;58.00;2.70;;;;;;;;;;5093352;28;20446;-66
2022/08/05 09:42:19;;;;;;;57.80;2.33;;;;;;;;;;5094934;28;20549;-66
2022/08/05 09:44:47;;;;;;;58.33;2.67;;;;;;;;;;5094856;28;20482;-67
2022/08/05 09:47:16;;;;;;;57.77;2.60;;;;;;;;;;5095210;28;20442;-67
2022/08/05 09:49:44;;;;;;;57.97;2.60;;;;;;;;;;5094348;28;20461;-66
2022/08/05 09:52:22;;;;;;;57.90;2.70;;;;;;;;;;5094689;28;20470;-67
2022/08/05 09:54:57;;;;;;;57.93;2.67;;;;;;;;;;5094674;28;20442;-67
2022/08/05 09:57:42;;;;;;;57.50;2.47;;;;;;;;;;5094991;28;20478;-66
2022/08/05 10:00:16;;;;;;;61.83;2.80;;;;;;;;;;5094381;28;20533;-66
2022/08/05 10:02:44;;;;;;;58.23;3.20;;;;;;;;;;5094761;28;20449;-67
2022/08/05 10:05:13;;;;;;;58.00;2.53;;;;;;;;;;5094329;28;20567;-67
2022/08/05 10:07:47;;;;;;;58.77;2.50;;;;;;;;;;5094558;28;20457;-67
2022/08/05 10:10:15;;;;;;;58.40;2.53;;;;;;;;;;5094188;28;20446;-67
2022/08/05 10:12:49;;;;;;;58.10;2.67;;;;;;;;;;5094568;28;20453;-67
2022/08/05 10:15:20;;;;;;;58.07;3.10;;;;;;;;;;5092687;28;20460;-67
2022/08/05 10:18:04;;;;;;;58.40;2.50;;;;;;;;;;5094415;28;20478;-67
2022/08/05 10:20:32;;;;;;;57.53;2.50;;;;;;;;;;5093932;28;20978;-67
2022/08/05 10:23:01;;;;;;;58.00;2.67;;;;;;;;;;5094370;28;20484;-67
2022/08/05 10:25:30;;;;;;;57.47;2.30;;;;;;;;;;5094194;28;20482;-67
2022/08/05 10:27:59;;;;;;;57.23;2.33;;;;;;;;;;5094276;28;20516;-67
2022/08/05 10:30:26;;;;;;;57.20;2.40;;;;;;;;;;5093674;28;20470;-67
2022/08/05 10:32:55;;;;;;;57.67;3.07;;;;;;;;;;5094071;28;20952;-66
2022/08/05 10:35:22;;;;;;;56.97;2.20;;;;;;;;;;5093037;28;20446;-67
2022/08/05 10:37:50;;;;;;;57.87;2.80;;;;;;;;;;5092874;28;20443;-67
2022/08/05 10:40:20;;;;;;;56.67;2.30;;;;;;;;;;5093634;28;20467;-67
2022/08/05 10:42:52;;;;;;;59.00;2.73;;;;;;;;;;5093869;28;20457;-67
2022/08/05 10:45:26;;;;;;;57.10;2.97;;;;;;;;;;5093714;28;20482;-67
2022/08/05 10:47:54;;;;;;;56.97;2.40;;;;;;;;;;5093880;28;20528;-67
2022/08/05 10:50:22;;;;;;;56.43;2.37;;;;;;;;;;5093245;28;20865;-67
2022/08/05 10:52:55;;;;;;;56.70;2.40;;;;;;;;;;5093701;28;20829;-67
2022/08/05 10:55:23;;;;;;;56.80;2.60;;;;;;;;;;5092260;28;20453;-67
2022/08/05 10:58:07;;;;;;;56.97;2.30;;;;;;;;;;5093767;28;20449;-67
2022/08/05 11:00:37;;;;;;;56.50;2.30;;;;;;;;;;5092943;28;20470;-67
2022/08/05 11:03:10;;;;;;;56.37;2.40;;;;;;;;;;5092638;28;20431;-67
2022/08/05 11:05:39;;;;;;;56.30;2.50;;;;;;;;;;5093259;28;20570;-67
2022/08/05 11:08:07;;;;;;;57.03;2.60;;;;;;;;;;5093556;28;20503;-67
2022/08/05 11:10:41;;;;;;;55.67;2.57;;;;;;;;;;5093169;28;20514;-67
2022/08/05 11:13:10;;;;;;;56.07;2.27;;;;;;;;;;5091759;28;20458;-66
2022/08/05 11:16:11;;;;;;;56.60;2.30;;;;;;;;;;5093071;28;20480;-67
2022/08/05 11:18:40;;;;;;;56.57;2.30;;;;;;;;;;5092617;28;20817;-67
2022/08/05 11:21:28;;;;;;;55.93;2.30;;;;;;;;;;5093125;28;20561;-67
2022/08/05 11:23:56;;;;;;;56.20;2.20;;;;;;;;;;5092903;28;20456;-67
2022/08/05 11:26:25;;;;;;;55.90;2.17;;;;;;;;;;5093111;28;20482;-67
2022/08/05 11:59:32;;;;;;;56.07;2.43;;;;;;;;;;5090473;28;20819;-67
2022/08/05 12:02:05;;;;;;;57.00;2.40;;;;;;;;;;5092328;28;20486;-68
2022/08/05 12:04:39;;;;;;;56.30;2.83;;;;;;;;;;5090838;28;20511;-65
2022/08/05 12:07:07;;;;;;;56.07;2.10;;;;;;;;;;5090423;28;20461;-65
2022/08/05 12:09:45;;;;;;;55.87;2.37;;;;;;;;;;5091512;28;20450;-65
2022/08/05 12:12:15;;;;;;;56.40;2.50;;;;;;;;;;5092113;28;20549;-65
2022/08/05 12:14:47;;;;;;;56.43;2.50;;;;;;;;;;5092129;28;20450;-65
2022/08/05 12:17:17;;;;;;;55.77;2.20;;;;;;;;;;5092101;28;20457;-65
2022/08/05 12:19:45;;;;;;;56.00;2.07;;;;;;;;;;5091710;28;20935;-65
2022/08/05 12:22:13;;;;;;;55.57;2.33;;;;;;;;;;5091977;28;20477;-65
2022/08/05 12:24:44;;;;;;;56.40;2.70;;;;;;;;;;5091903;28;20960;-65
2022/08/05 12:27:20;;;;;;;55.87;2.40;;;;;;;;;;5091967;28;20465;-65
2022/08/05 12:29:58;;;;;;;55.50;2.10;;;;;;;;;;5091884;28;20450;-65
2022/08/05 12:32:25;;;;;;;56.27;2.23;;;;;;;;;;5092097;28;20446;-67
2022/08/05 12:34:52;;;;;;;56.77;2.53;;;;;;;;;;5092014;28;20454;-67
2022/08/05 12:37:19;;;;;;;56.90;2.83;;;;;;;;;;5088816;28;20533;-67
2022/08/05 12:39:49;;;;;;;56.67;2.40;;;;;;;;;;5091671;28;20446;-67
2022/08/05 12:42:18;;;;;;;57.13;2.23;;;;;;;;;;5092140;28;20463;-67
2022/08/05 12:44:48;;;;;;;57.00;2.60;;;;;;;;;;5091880;28;20488;-67
2022/08/05 12:47:27;;;;;;;57.13;2.33;;;;;;;;;;5091829;28;20450;-67
2022/08/05 12:49:57;;;;;;;56.93;2.53;;;;;;;;;;5091384;28;20993;-67
2022/08/05 12:52:24;;;;;;;57.40;2.70;;;;;;;;;;5090535;28;20447;-67
2022/08/05 12:54:51;;;;;;;56.77;2.20;;;;;;;;;;5091909;28;20525;-67
2022/08/05 12:57:19;;;;;;;57.20;2.60;;;;;;;;;;5091444;28;20537;-67
2022/08/05 12:59:48;;;;;;;57.17;2.50;;;;;;;;;;5091417;28;20531;-66
2022/08/05 13:02:20;;;;;;;57.17;2.40;;;;;;;;;;5094308;28;20504;-66
2022/08/05 13:04:47;;;;;;;57.40;2.40;;;;;;;;;;5095970;28;20478;-66
2022/08/05 13:07:17;;;;;;;57.37;2.53;;;;;;;;;;5095777;28;20459;-66
2022/08/05 13:09:49;;;;;;;57.67;2.80;;;;;;;;;;5094994;28;20553;-66
2022/08/05 13:12:17;;;;;;;57.57;3.03;;;;;;;;;;5095510;28;20482;-66
2022/08/05 13:14:47;;;;;;;57.20;2.37;;;;;;;;;;5095669;28;20450;-66
2022/08/05 13:17:19;;;;;;;58.17;2.93;;;;;;;;;;5095417;28;20462;-66
2022/08/05 13:19:59;;;;;;;57.03;2.63;;;;;;;;;;5095242;28;20469;-66
2022/08/05 13:22:27;;;;;;;57.20;2.40;;;;;;;;;;5094905;28;20456;-66
2022/08/05 13:24:54;;;;;;;58.10;2.40;;;;;;;;;;5095292;28;20846;-66
2022/08/05 13:27:25;;;;;;;57.10;2.77;;;;;;;;;;5095399;28;20451;-66
2022/08/05 13:29:52;;;;;;;56.40;2.40;;;;;;;;;;5094649;28;20446;-66
2022/08/05 13:32:21;;;;;;;56.90;2.30;;;;;;;;;;5095139;28;21004;-66
2022/08/05 13:34:50;;;;;;;56.80;2.50;;;;;;;;;;5093274;28;20478;-66
2022/08/05 13:37:20;;;;;;;57.67;2.57;;;;;;;;;;5095100;28;20957;-66
2022/08/05 13:39:47;;;;;;;56.47;2.37;;;;;;;;;;5094879;28;20950;-66
2022/08/05 13:42:15;;;;;;;56.40;2.50;;;;;;;;;;5094949;28;20982;-66
2022/08/05 13:44:47;;;;;;;56.17;2.40;;;;;;;;;;5095180;28;20809;-66
2022/08/05 13:47:15;;;;;;;56.50;2.50;;;;;;;;;;5094964;28;20472;-66
2022/08/05 13:49:51;;;;;;;58.27;2.60;;;;;;;;;;5094526;28;20454;-66
2022/08/05 13:52:19;;;;;;;56.83;2.70;;;;;;;;;;5094741;28;20462;-66
2022/08/05 13:54:49;;;;;;;59.93;2.60;;;;;;;;;;5094804;28;20446;-66
2022/08/05 13:57:16;;;;;;;56.87;2.50;;;;;;;;;;5095032;28;20469;-66
2022/08/05 13:59:44;;;;;;;55.93;2.07;;;;;;;;;;5093247;28;20541;-67
2022/08/05 14:02:12;;;;;;;56.27;2.20;;;;;;;;;;5094436;28;20561;-67
2022/08/05 14:07:28;;;;;;;55.60;2.07;;;;;;;;;;5094660;28;20786;-67
2022/08/05 14:09:56;;;;;;;56.47;2.63;;;;;;;;;;5094132;28;20427;-66
2022/08/05 14:12:24;;;;;;;56.27;2.47;;;;;;;;;;5094336;28;20469;-67
2022/08/05 14:14:51;;;;;;;56.37;2.57;;;;;;;;;;5094408;28;20825;-66
2022/08/05 14:17:22;;;;;;;56.47;2.40;;;;;;;;;;5093894;28;20485;-67
2022/08/05 14:19:49;;;;;;;56.80;3.30;;;;;;;;;;5094158;28;20526;-67
2022/08/05 14:22:17;;;;;;;56.37;2.10;;;;;;;;;;5094335;28;20462;-67
2022/08/05 14:24:48;;;;;;;57.57;2.60;;;;;;;;;;5094074;28;20485;-67
2022/08/05 14:27:15;;;;;;;57.10;2.40;;;;;;;;;;5094165;28;20478;-66
2022/08/05 14:29:43;;;;;;;57.63;2.50;;;;;;;;;;5093669;28;20446;-66
2022/08/05 14:32:11;;;;;;;57.30;2.30;;;;;;;;;;5094212;28;20469;-66
2022/08/05 14:34:38;;;;;;;57.77;2.70;;;;;;;;;;5094149;28;20478;-66
2022/08/05 14:37:08;;;;;;;58.00;2.60;;;;;;;;;;5093971;28;20442;-67
2022/08/05 14:39:38;;;;;;;57.60;2.63;;;;;;;;;;5093559;28;20453;-67
2022/08/05 14:42:07;;;;;;;59.00;2.93;;;;;;;;;;5093718;28;20555;-66
2022/08/05 14:44:37;;;;;;;58.40;2.80;;;;;;;;;;5093975;28;20450;-66
2022/08/05 14:47:05;;;;;;;57.87;2.70;;;;;;;;;;5094052;28;20887;-66
2022/08/05 14:49:36;;;;;;;58.00;2.70;;;;;;;;;;5093600;28;20463;-66
2022/08/05 14:52:09;;;;;;;58.40;3.07;;;;;;;;;;5093746;28;20466;-66
2022/08/05 14:54:36;;;;;;;58.57;3.10;;;;;;;;;;5093537;28;20553;-66
2022/08/05 14:57:03;;;;;;;58.37;3.00;;;;;;;;;;5093526;28;20443;-65
2022/08/05 14:59:34;;;;;;;58.87;2.63;;;;;;;;;;5093404;28;20833;-66
2022/08/05 15:02:01;;;;;;;58.27;3.10;;;;;;;;;;5093323;28;20466;-66
2022/08/05 15:04:28;;;;;;;58.33;2.77;;;;;;;;;;5093364;28;20965;-66
2022/08/05 15:06:56;;;;;;;58.40;3.30;;;;;;;;;;5093345;28;20488;-66
2022/08/05 15:09:23;;;;;;;58.67;2.93;;;;;;;;;;5092925;28;20446;-66
2022/08/05 15:11:52;;;;;;;58.27;2.80;;;;;;;;;;5093416;28;20489;-66
2022/08/05 15:14:19;;;;;;;58.43;2.80;;;;;;;;;;5093204;28;20472;-66
2022/08/05 15:16:48;;;;;;;59.70;3.40;;;;;;;;;;5093487;28;20438;-66
2022/08/05 15:19:15;;;;;;;59.50;3.67;;;;;;;;;;5092788;28;20448;-65
2022/08/05 15:21:43;;;;;;;59.10;3.47;;;;;;;;;;5093022;28;20470;-66